Time;durP1;ratioP1;P1;durP2;ratioP2;P2;SDS_P1;SDS_P2;PMS_P1;PMS_P2;Temp;Humidity;BMP_temperature;BMP_pressure;BME280_temperature;BME280_humidity;BME280_pressure;Samples;Min_cycle;Max_cycle;Signal;HPM_P1;HPM_P2
2021/09/17 00:00:13;;;;;;;7.87;2.50;;;15.20;99.90;;;;;;5041218;28;20188;-72
2021/09/17 00:02:39;;;;;;;3.93;1.80;;;15.20;99.90;;;;;;5040452;28;20261;-73
2021/09/17 00:05:06;;;;;;;1.90;1.70;;;15.20;99.90;;;;;;5041673;28;20889;-72
2021/09/17 00:07:31;;;;;;;2.10;1.90;;;15.20;99.90;;;;;;5040019;28;20463;-72
2021/09/17 00:09:58;;;;;;;3.17;2.07;;;15.10;99.90;;;;;;5039517;28;20456;-73
2021/09/17 00:12:24;;;;;;;1.60;1.50;;;15.20;99.90;;;;;;5040638;28;20166;-72
2021/09/17 00:14:50;;;;;;;3.63;1.57;;;15.10;99.90;;;;;;5039636;28;20434;-72
2021/09/17 00:17:15;;;;;;;3.07;2.10;;;15.10;99.90;;;;;;5040728;28;20457;-73
2021/09/17 00:19:41;;;;;;;4.07;1.40;;;15.10;99.90;;;;;;5040831;28;20457;-73
2021/09/17 00:22:07;;;;;;;3.93;2.00;;;15.10;99.90;;;;;;5041435;28;20184;-72
2021/09/17 00:24:32;;;;;;;2.70;1.53;;;15.10;99.90;;;;;;5043487;28;20604;-73
2021/09/17 00:26:59;;;;;;;2.07;1.23;;;15.00;99.90;;;;;;5043567;28;20193;-72
2021/09/17 00:29:25;;;;;;;3.43;1.47;;;15.10;99.90;;;;;;5044270;28;20193;-72
2021/09/17 00:31:50;;;;;;;2.90;1.70;;;15.10;99.90;;;;;;5044394;28;20917;-73
2021/09/17 00:34:16;;;;;;;4.33;1.67;;;15.10;99.90;;;;;;5045132;28;20173;-73
2021/09/17 00:36:42;;;;;;;1.80;1.30;;;15.00;99.90;;;;;;5042755;28;20177;-72
2021/09/17 00:39:12;;;;;;;3.13;1.63;;;15.00;99.90;;;;;;5044698;28;20561;-72
2021/09/17 00:41:39;;;;;;;5.77;1.30;;;15.00;99.90;;;;;;5044715;28;20188;-73
2021/09/17 00:44:05;;;;;;;2.03;1.57;;;15.00;99.90;;;;;;5044219;28;20454;-72
2021/09/17 00:46:30;;;;;;;1.87;1.37;;;15.00;99.90;;;;;;5043697;28;20427;-72
2021/09/17 00:48:56;;;;;;;1.30;1.20;;;15.00;99.90;;;;;;5045251;28;20182;-73
2021/09/17 00:51:22;;;;;;;1.87;1.10;;;15.00;99.90;;;;;;5044124;28;20216;-72
2021/09/17 00:53:47;;;;;;;1.27;1.17;;;14.90;99.90;;;;;;5044421;28;20181;-73
2021/09/17 00:56:13;;;;;;;4.30;1.57;;;14.90;99.90;;;;;;5043597;28;20443;-72
2021/09/17 00:58:39;;;;;;;1.43;1.33;;;15.00;99.90;;;;;;5043799;28;20230;-73
2021/09/17 01:01:04;;;;;;;6.27;1.37;;;15.00;99.90;;;;;;5044800;28;20435;-73
2021/09/17 01:03:30;;;;;;;0.93;0.93;;;15.00;99.90;;;;;;5045175;28;20185;-72
2021/09/17 01:05:59;;;;;;;5.23;1.40;;;15.00;99.90;;;;;;5044413;28;20181;-72
2021/09/17 01:08:25;;;;;;;4.93;1.27;;;15.00;99.90;;;;;;5044937;28;20625;-72
2021/09/17 01:10:51;;;;;;;4.43;1.43;;;14.90;99.90;;;;;;5042923;28;20488;-73
2021/09/17 01:13:17;;;;;;;1.83;1.07;;;14.90;99.90;;;;;;5044525;28;20174;-72
2021/09/17 01:15:43;;;;;;;1.53;1.43;;;15.00;99.90;;;;;;5043699;28;20342;-72
2021/09/17 01:18:08;;;;;;;1.80;1.00;;;14.90;99.90;;;;;;5042564;28;20935;-72
2021/09/17 01:20:34;;;;;;;1.27;1.10;;;15.00;99.90;;;;;;5043716;28;20173;-72
2021/09/17 01:23:00;;;;;;;3.33;1.27;;;15.00;99.90;;;;;;5043871;28;20182;-72
2021/09/17 01:25:25;;;;;;;4.70;1.10;;;14.90;99.90;;;;;;5043258;28;20266;-72
2021/09/17 01:27:53;;;;;;;4.80;1.63;;;14.90;99.90;;;;;;5042575;28;20194;-72
2021/09/17 01:30:21;;;;;;;3.90;1.47;;;14.80;99.90;;;;;;5043016;28;20274;-73
2021/09/17 01:32:47;;;;;;;1.00;0.90;;;14.80;99.90;;;;;;5043080;28;20525;-72
2021/09/17 01:35:15;;;;;;;2.30;1.20;;;14.90;99.90;;;;;;5041457;28;20511;-72
2021/09/17 01:37:42;;;;;;;2.70;1.30;;;14.90;99.90;;;;;;5042771;28;20424;-72
2021/09/17 01:40:09;;;;;;;5.17;1.20;;;14.80;99.90;;;;;;5043865;28;20954;-73
2021/09/17 01:42:35;;;;;;;3.73;1.20;;;14.80;99.90;;;;;;5043465;28;20440;-72
2021/09/17 01:45:01;;;;;;;8.93;1.33;;;14.80;99.90;;;;;;5043446;28;20440;-72
2021/09/17 01:47:26;;;;;;;1.77;0.90;;;14.80;99.90;;;;;;5042184;28;20264;-72
2021/09/17 01:49:52;;;;;;;1.60;1.13;;;14.80;99.90;;;;;;5042627;28;20201;-72
2021/09/17 01:52:18;;;;;;;3.33;1.10;;;14.80;99.90;;;;;;5043038;28;20189;-72
2021/09/17 01:54:44;;;;;;;6.70;1.60;;;14.90;99.90;;;;;;5043109;28;20238;-73
2021/09/17 01:57:10;;;;;;;1.00;1.00;;;14.80;99.90;;;;;;5042356;28;20187;-73
2021/09/17 01:59:35;;;;;;;6.23;1.63;;;14.80;99.90;;;;;;5043739;28;20437;-72
2021/09/17 02:02:01;;;;;;;2.40;1.00;;;14.80;99.90;;;;;;5042361;28;20616;-73
2021/09/17 02:04:27;;;;;;;4.23;3.30;;;14.70;99.90;;;;;;5041921;28;20178;-72
2021/09/17 02:06:53;;;;;;;2.43;1.50;;;14.70;99.90;;;;;;5041481;28;20177;-72
2021/09/17 02:09:19;;;;;;;3.90;1.03;;;14.80;99.90;;;;;;5043753;28;20770;-72
2021/09/17 02:11:45;;;;;;;1.63;0.87;;;14.80;99.90;;;;;;5040003;28;20228;-73
2021/09/17 02:14:10;;;;;;;2.30;0.87;;;14.70;99.90;;;;;;5043822;28;20183;-73
2021/09/17 02:16:38;;;;;;;4.17;1.50;;;14.70;99.90;;;;;;5041990;28;20181;-73
2021/09/17 02:19:03;;;;;;;3.47;1.27;;;14.70;99.90;;;;;;5040408;28;20174;-73
2021/09/17 02:21:29;;;;;;;3.73;0.90;;;14.70;99.90;;;;;;5043488;28;20900;-73
2021/09/17 02:23:55;;;;;;;3.33;1.43;;;14.70;99.90;;;;;;5041848;28;20437;-73
2021/09/17 02:26:21;;;;;;;1.10;0.90;;;14.70;99.90;;;;;;5041627;28;20193;-73
2021/09/17 02:28:47;;;;;;;1.37;0.90;;;14.70;99.90;;;;;;5041589;28;20250;-73
2021/09/17 02:31:12;;;;;;;1.03;0.63;;;14.70;99.90;;;;;;5043035;28;20229;-72
2021/09/17 02:33:38;;;;;;;0.80;0.80;;;14.60;99.90;;;;;;5042966;28;20599;-73
2021/09/17 02:36:04;;;;;;;1.10;1.00;;;14.70;99.90;;;;;;5040560;28;20173;-73
2021/09/17 02:38:30;;;;;;;3.23;1.03;;;14.70;99.90;;;;;;5042969;28;20767;-73
2021/09/17 02:40:56;;;;;;;0.93;0.70;;;14.70;99.90;;;;;;5042557;28;20223;-73
2021/09/17 02:43:22;;;;;;;2.93;1.60;;;14.70;99.90;;;;;;5042145;28;20190;-73
2021/09/17 02:45:47;;;;;;;1.57;0.97;;;14.70;99.90;;;;;;5042002;28;20189;-73
2021/09/17 02:48:13;;;;;;;2.90;0.80;;;14.70;99.90;;;;;;5041346;28;20189;-72
2021/09/17 02:50:39;;;;;;;1.03;0.80;;;14.60;99.90;;;;;;5042725;28;20254;-72
2021/09/17 02:53:07;;;;;;;2.90;1.17;;;14.60;99.90;;;;;;5042512;28;20506;-72
2021/09/17 02:55:33;;;;;;;1.80;0.80;;;14.60;99.90;;;;;;5042639;28;20181;-72
2021/09/17 02:58:03;;;;;;;2.00;1.00;;;14.60;99.90;;;;;;5039941;28;20594;-72
2021/09/17 03:00:29;;;;;;;1.90;0.90;;;14.60;99.90;;;;;;5041936;28;20181;-73
2021/09/17 03:02:55;;;;;;;2.50;1.00;;;14.60;99.90;;;;;;5042253;28;20431;-73
2021/09/17 03:05:20;;;;;;;2.50;0.80;;;14.60;99.90;;;;;;5041578;28;20439;-73
2021/09/17 03:07:46;;;;;;;2.17;0.70;;;14.70;99.90;;;;;;5041866;28;20177;-72
2021/09/17 03:10:12;;;;;;;6.37;1.30;;;14.60;99.90;;;;;;5041947;28;20205;-72
2021/09/17 03:12:38;;;;;;;2.50;1.10;;;14.70;99.90;;;;;;5040180;28;20182;-72
2021/09/17 03:15:04;;;;;;;0.80;0.80;;;14.60;99.90;;;;;;5042292;28;20749;-73
2021/09/17 03:17:29;;;;;;;1.70;1.60;;;14.60;99.90;;;;;;5041441;28;20170;-73
2021/09/17 03:19:55;;;;;;;3.03;1.13;;;14.50;99.90;;;;;;5041165;28;20730;-72
2021/09/17 03:22:21;;;;;;;1.30;1.10;;;14.50;99.90;;;;;;5040452;28;20256;-73
2021/09/17 03:24:46;;;;;;;1.87;0.90;;;14.50;99.90;;;;;;5041523;28;20201;-72
2021/09/17 03:27:12;;;;;;;1.13;0.90;;;14.50;99.90;;;;;;5041606;28;20185;-73
2021/09/17 03:29:38;;;;;;;1.80;0.83;;;14.50;99.90;;;;;;5040982;28;20192;-72
2021/09/17 03:32:04;;;;;;;4.00;1.00;;;14.50;99.90;;;;;;5041868;28;20181;-72
2021/09/17 03:34:29;;;;;;;3.13;1.70;;;14.50;99.90;;;;;;5041015;28;20523;-72
2021/09/17 03:36:55;;;;;;;2.10;0.97;;;14.40;99.90;;;;;;5040459;28;20439;-72
2021/09/17 03:39:20;;;;;;;3.53;0.90;;;14.50;99.90;;;;;;5041380;28;20180;-73
2021/09/17 03:41:46;;;;;;;0.77;0.70;;;14.40;99.90;;;;;;5040052;28;20181;-72
2021/09/17 03:44:13;;;;;;;1.60;0.70;;;14.40;99.90;;;;;;5040480;28;20508;-73
2021/09/17 03:46:38;;;;;;;1.10;0.70;;;14.50;99.90;;;;;;5039116;28;20502;-72
2021/09/17 03:49:04;;;;;;;1.30;0.80;;;14.50;99.90;;;;;;5040707;28;20438;-73
2021/09/17 03:51:30;;;;;;;2.00;0.67;;;14.50;99.90;;;;;;5042057;28;20201;-73
2021/09/17 03:53:56;;;;;;;0.87;0.87;;;14.50;99.90;;;;;;5040417;28;20213;-72
2021/09/17 03:56:21;;;;;;;1.47;0.90;;;14.50;99.90;;;;;;5040625;28;20174;-73
2021/09/17 03:58:47;;;;;;;1.90;0.90;;;14.50;99.90;;;;;;5043716;28;20181;-73
2021/09/17 04:01:13;;;;;;;0.70;0.70;;;14.50;99.90;;;;;;5044166;28;20184;-73
2021/09/17 04:03:38;;;;;;;2.13;1.00;;;14.50;99.90;;;;;;5045544;28;20174;-73
2021/09/17 04:06:04;;;;;;;0.80;0.80;;;14.50;99.90;;;;;;5044440;28;20223;-72
2021/09/17 04:08:29;;;;;;;1.10;1.00;;;14.50;99.90;;;;;;5045647;28;20677;-72
2021/09/17 04:10:55;;;;;;;0.80;0.80;;;14.50;99.90;;;;;;5044293;28;20202;-72
2021/09/17 04:13:21;;;;;;;1.57;0.70;;;14.50;99.90;;;;;;5044297;28;20216;-73
2021/09/17 04:15:46;;;;;;;1.13;0.77;;;14.50;99.90;;;;;;5044903;28;20279;-73
2021/09/17 04:18:12;;;;;;;1.93;0.83;;;14.50;99.90;;;;;;5044256;28;20174;-72
2021/09/17 04:20:38;;;;;;;1.23;0.73;;;14.60;99.90;;;;;;5045204;28;20173;-72
2021/09/17 04:23:03;;;;;;;0.80;0.80;;;14.50;99.90;;;;;;5045670;28;20268;-72
2021/09/17 04:25:29;;;;;;;0.80;0.80;;;14.50;99.90;;;;;;5045456;28;20556;-72
2021/09/17 04:27:56;;;;;;;0.80;0.80;;;14.50;99.90;;;;;;5043934;28;20182;-72
2021/09/17 04:30:22;;;;;;;3.33;0.80;;;14.40;99.90;;;;;;5048745;28;20213;-72
2021/09/17 04:32:48;;;;;;;4.23;1.03;;;14.50;99.90;;;;;;5044299;28;20438;-72
2021/09/17 04:35:14;;;;;;;3.37;0.73;;;14.50;99.90;;;;;;5044793;28;20185;-73
2021/09/17 04:37:42;;;;;;;2.27;0.73;;;14.40;99.90;;;;;;5043998;28;20177;-72
2021/09/17 04:40:10;;;;;;;2.23;0.80;;;14.40;99.90;;;;;;5043821;28;20499;-72
2021/09/17 04:42:35;;;;;;;2.00;0.90;;;14.40;99.90;;;;;;5043780;28;20435;-72
2021/09/17 04:45:01;;;;;;;2.20;0.80;;;14.40;99.90;;;;;;5045238;28;20455;-73
2021/09/17 04:47:27;;;;;;;1.43;0.90;;;14.40;99.90;;;;;;5044515;28;20186;-72
2021/09/17 04:49:52;;;;;;;1.80;0.80;;;14.40;99.90;;;;;;5044089;28;20258;-72
2021/09/17 04:52:20;;;;;;;3.00;0.77;;;14.50;99.90;;;;;;5044657;28;20177;-72
2021/09/17 04:54:45;;;;;;;0.83;0.77;;;14.50;99.90;;;;;;5044663;28;20659;-72
2021/09/17 04:57:11;;;;;;;1.00;0.50;;;14.50;99.90;;;;;;5042082;28;20535;-72
2021/09/17 04:59:37;;;;;;;2.67;0.80;;;14.40;99.90;;;;;;5045188;28;20259;-73
2021/09/17 05:02:02;;;;;;;3.33;0.70;;;14.40;99.90;;;;;;5043791;28;20614;-72
2021/09/17 05:04:28;;;;;;;2.00;0.87;;;14.40;99.90;;;;;;5044252;28;20578;-72
2021/09/17 05:06:54;;;;;;;1.53;0.80;;;14.40;99.90;;;;;;5043353;28;20264;-73
2021/09/17 05:09:20;;;;;;;0.93;0.70;;;14.40;99.90;;;;;;5042687;28;20514;-73
2021/09/17 05:11:46;;;;;;;2.63;0.63;;;14.40;99.90;;;;;;5044424;28;20423;-73
2021/09/17 05:14:11;;;;;;;2.70;0.70;;;14.50;99.90;;;;;;5041791;28;20700;-72
2021/09/17 05:16:37;;;;;;;0.80;0.80;;;14.40;99.90;;;;;;5042536;28;20267;-72
2021/09/17 05:19:03;;;;;;;1.27;0.70;;;14.40;99.90;;;;;;5044600;28;20174;-73
2021/09/17 05:21:29;;;;;;;0.80;0.60;;;14.40;99.90;;;;;;5044157;28;20272;-73
2021/09/17 05:23:54;;;;;;;2.60;0.90;;;14.40;99.90;;;;;;5043902;28;20436;-73
2021/09/17 05:26:20;;;;;;;4.37;1.17;;;14.40;99.90;;;;;;5042956;28;20182;-72
2021/09/17 05:28:46;;;;;;;1.13;0.80;;;14.40;99.90;;;;;;5042578;28;20533;-73
2021/09/17 05:31:11;;;;;;;0.60;0.60;;;14.40;99.90;;;;;;5043003;28;20212;-73
2021/09/17 05:33:37;;;;;;;2.33;0.83;;;14.40;99.90;;;;;;5043689;28;20174;-72
2021/09/17 05:36:03;;;;;;;1.57;0.80;;;14.40;99.90;;;;;;5042427;28;20173;-73
2021/09/17 05:38:29;;;;;;;1.23;1.20;;;14.40;99.90;;;;;;5040551;28;20534;-73
2021/09/17 05:40:54;;;;;;;0.60;0.60;;;14.40;99.90;;;;;;5042544;28;20240;-73
2021/09/17 05:43:20;;;;;;;1.10;0.90;;;14.40;99.90;;;;;;5043724;28;20277;-73
2021/09/17 05:45:45;;;;;;;0.90;0.77;;;14.40;99.90;;;;;;5044235;28;20181;-73
2021/09/17 05:48:11;;;;;;;1.10;0.70;;;14.40;99.90;;;;;;5043023;28;20185;-73
2021/09/17 05:50:37;;;;;;;1.63;0.77;;;14.50;99.90;;;;;;5045526;28;20194;-73
2021/09/17 05:53:02;;;;;;;0.93;0.80;;;14.40;99.90;;;;;;5043419;28;20665;-73
2021/09/17 05:55:29;;;;;;;3.03;0.70;;;14.40;99.90;;;;;;5046012;28;20177;-75
2021/09/17 05:57:55;;;;;;;2.43;0.73;;;14.40;99.90;;;;;;5042272;28;20166;-75
2021/09/17 06:00:21;;;;;;;0.90;0.90;;;14.40;99.90;;;;;;5042699;28;20496;-75
2021/09/17 06:02:47;;;;;;;0.93;0.80;;;14.40;99.90;;;;;;5041990;28;20435;-75
2021/09/17 06:05:12;;;;;;;1.27;0.70;;;14.50;99.90;;;;;;5042498;28;20428;-75
2021/09/17 06:07:43;;;;;;;1.43;1.00;;;14.50;99.90;;;;;;5042354;28;20185;-75
2021/09/17 06:10:10;;;;;;;1.43;0.83;;;14.40;99.90;;;;;;5040721;28;20242;-75
2021/09/17 06:12:44;;;;;;;1.00;0.90;;;14.40;99.90;;;;;;5039563;28;20535;-76
2021/09/17 06:15:10;;;;;;;2.20;0.70;;;14.40;99.90;;;;;;5040744;28;20530;-76
2021/09/17 06:17:36;;;;;;;1.33;0.80;;;14.40;99.90;;;;;;5043102;28;20425;-75
2021/09/17 06:20:03;;;;;;;0.83;0.83;;;14.40;99.90;;;;;;5042055;28;20434;-75
2021/09/17 06:22:29;;;;;;;0.70;0.70;;;14.50;99.90;;;;;;5041651;28;20188;-75
2021/09/17 06:24:54;;;;;;;0.57;0.57;;;14.50;99.90;;;;;;5042163;28;20515;-75
2021/09/17 06:27:20;;;;;;;0.60;0.60;;;14.50;99.90;;;;;;5042426;28;20178;-75
2021/09/17 06:29:46;;;;;;;2.40;0.83;;;14.50;99.90;;;;;;5041741;28;20227;-75
2021/09/17 06:32:11;;;;;;;0.70;0.70;;;14.60;99.90;;;;;;5043050;28;20174;-76
2021/09/17 06:34:37;;;;;;;3.47;0.60;;;14.50;99.90;;;;;;5042877;28;20514;-75
2021/09/17 06:37:03;;;;;;;1.67;0.63;;;14.60;99.90;;;;;;5040788;28;20173;-75
2021/09/17 06:39:29;;;;;;;2.20;0.50;;;14.70;99.90;;;;;;5042704;28;20252;-75
2021/09/17 06:41:54;;;;;;;1.00;0.80;;;14.70;99.90;;;;;;5042136;28;20435;-75
2021/09/17 06:44:20;;;;;;;0.60;0.60;;;14.70;99.90;;;;;;5041103;28;20184;-75
2021/09/17 06:46:47;;;;;;;0.60;0.60;;;14.70;99.90;;;;;;5041902;28;20510;-75
2021/09/17 06:49:13;;;;;;;0.50;0.50;;;14.80;99.90;;;;;;5042124;28;20224;-76
2021/09/17 06:51:39;;;;;;;0.50;0.50;;;14.80;99.90;;;;;;5041982;28;20468;-75
2021/09/17 06:54:04;;;;;;;0.57;0.50;;;14.70;99.90;;;;;;5041812;28;20172;-75
2021/09/17 06:56:30;;;;;;;0.50;0.50;;;14.70;99.90;;;;;;5042085;28;20188;-75
2021/09/17 06:58:57;;;;;;;0.70;0.70;;;14.70;99.90;;;;;;5042691;28;20416;-75
2021/09/17 07:01:25;;;;;;;1.50;0.70;;;14.80;99.90;;;;;;5041177;28;20182;-75
2021/09/17 07:03:51;;;;;;;0.80;0.67;;;14.80;99.90;;;;;;5041745;28;20437;-75
2021/09/17 07:06:16;;;;;;;2.73;1.00;;;14.90;99.90;;;;;;5039487;28;20465;-75
2021/09/17 07:08:42;;;;;;;0.80;0.80;;;14.90;99.90;;;;;;5042872;28;20498;-75
2021/09/17 07:11:09;;;;;;;0.93;0.53;;;14.90;99.90;;;;;;5041682;28;20248;-76
2021/09/17 07:13:34;;;;;;;0.80;0.60;;;14.90;99.90;;;;;;5041849;28;20431;-76
2021/09/17 07:16:00;;;;;;;1.80;0.70;;;14.90;99.90;;;;;;5039860;28;20575;-76
2021/09/17 07:18:27;;;;;;;0.63;0.60;;;15.00;99.90;;;;;;5041721;28;21381;-76
2021/09/17 07:20:54;;;;;;;0.50;0.50;;;15.00;99.90;;;;;;5040854;28;20184;-76
2021/09/17 07:23:20;;;;;;;0.50;0.50;;;15.00;99.90;;;;;;5040268;28;20437;-76
2021/09/17 07:25:46;;;;;;;0.60;0.50;;;15.00;99.90;;;;;;5039674;28;20494;-75
2021/09/17 07:28:12;;;;;;;0.50;0.50;;;15.00;99.90;;;;;;5041551;28;20311;-76
2021/09/17 07:30:38;;;;;;;1.03;0.50;;;15.00;99.90;;;;;;5041662;28;20456;-76
2021/09/17 07:33:04;;;;;;;0.50;0.50;;;15.20;99.90;;;;;;5041623;28;20429;-75
2021/09/17 07:35:30;;;;;;;0.60;0.60;;;15.30;99.90;;;;;;5042209;28;20435;-76
2021/09/17 07:37:57;;;;;;;0.50;0.50;;;15.40;99.90;;;;;;5040001;28;20256;-75
2021/09/17 07:40:23;;;;;;;0.60;0.60;;;15.50;99.90;;;;;;5040858;28;20203;-76
2021/09/17 07:42:49;;;;;;;0.50;0.50;;;15.50;99.90;;;;;;5037804;28;20447;-75
2021/09/17 07:45:16;;;;;;;1.33;0.60;;;15.50;99.90;;;;;;5041649;28;20451;-76
2021/09/17 07:47:43;;;;;;;0.60;0.60;;;15.40;99.90;;;;;;5040087;28;20446;-76
2021/09/17 07:50:10;;;;;;;1.00;0.67;;;15.30;99.90;;;;;;5036989;28;20859;-76
2021/09/17 07:52:35;;;;;;;0.50;0.50;;;15.40;99.90;;;;;;5041419;28;20443;-76
2021/09/17 07:55:01;;;;;;;0.50;0.50;;;15.40;99.90;;;;;;5042557;28;20474;-76
2021/09/17 07:57:27;;;;;;;1.23;0.50;;;15.60;99.90;;;;;;5040607;28;20176;-75
2021/09/17 07:59:53;;;;;;;0.50;0.50;;;15.60;99.90;;;;;;5041395;28;20276;-76
2021/09/17 08:02:18;;;;;;;0.50;0.50;;;15.60;99.90;;;;;;5041942;28;20177;-76
2021/09/17 08:04:44;;;;;;;0.70;0.60;;;15.70;99.90;;;;;;5041162;28;20987;-75
2021/09/17 08:07:10;;;;;;;0.60;0.60;;;15.80;99.90;;;;;;5038363;28;20524;-76
2021/09/17 08:09:35;;;;;;;0.50;0.50;;;15.80;99.90;;;;;;5042555;28;20181;-76
2021/09/17 08:12:02;;;;;;;0.47;0.47;;;15.90;99.90;;;;;;5041012;28;20204;-76
2021/09/17 08:14:28;;;;;;;0.60;0.60;;;16.00;99.90;;;;;;5041671;28;20243;-76
2021/09/17 08:16:53;;;;;;;0.50;0.50;;;15.90;99.90;;;;;;5038839;28;20435;-76
2021/09/17 08:19:19;;;;;;;0.40;0.40;;;16.00;99.90;;;;;;5040393;28;20982;-77
2021/09/17 08:21:45;;;;;;;0.60;0.50;;;16.00;99.90;;;;;;5041535;28;20702;-75
2021/09/17 08:24:18;;;;;;;0.60;0.50;;;16.00;99.90;;;;;;5041816;28;20235;-75
2021/09/17 08:26:47;;;;;;;0.57;0.57;;;15.90;99.90;;;;;;5042604;28;20177;-75
2021/09/17 08:29:13;;;;;;;0.73;0.60;;;16.00;99.90;;;;;;5041100;28;20463;-76
2021/09/17 08:31:40;;;;;;;0.60;0.60;;;16.00;99.90;;;;;;5040868;28;20455;-76
2021/09/17 08:34:06;;;;;;;0.50;0.50;;;16.00;99.90;;;;;;5042133;28;20454;-77
2021/09/17 08:36:33;;;;;;;1.00;0.70;;;16.10;99.90;;;;;;5039932;28;20464;-79
2021/09/17 08:38:58;;;;;;;0.50;0.50;;;16.10;99.90;;;;;;5041083;28;20433;-78
2021/09/17 08:41:25;;;;;;;0.57;0.57;;;16.20;99.90;;;;;;5041891;28;20535;-79
2021/09/17 08:43:52;;;;;;;0.77;0.50;;;16.00;99.90;;;;;;5041684;28;20617;-77
2021/09/17 08:46:18;;;;;;;0.50;0.50;;;16.00;99.90;;;;;;5045543;28;20433;-77
2021/09/17 08:48:46;;;;;;;0.77;0.50;;;16.00;99.90;;;;;;5045482;28;20404;-78
2021/09/17 08:51:11;;;;;;;0.77;0.50;;;16.00;99.90;;;;;;5045400;28;20485;-78
2021/09/17 08:53:37;;;;;;;0.70;0.50;;;15.90;99.90;;;;;;5044812;28;20436;-80
2021/09/17 08:56:07;;;;;;;0.50;0.50;;;16.00;99.90;;;;;;5045006;28;20243;-78
2021/09/17 08:58:33;;;;;;;0.60;0.60;;;16.00;99.90;;;;;;5047017;28;20177;-77
2021/09/17 09:00:59;;;;;;;1.17;0.70;;;16.10;99.90;;;;;;5046068;28;20786;-80
2021/09/17 09:03:30;;;;;;;0.50;0.50;;;16.00;99.90;;;;;;5045523;28;21081;-80
2021/09/17 09:06:11;;;;;;;0.60;0.50;;;15.90;99.90;;;;;;5044442;28;20182;-81
2021/09/17 09:08:39;;;;;;;0.77;0.60;;;16.20;99.90;;;;;;5044491;28;20946;-80
2021/09/17 09:11:23;;;;;;;1.30;0.50;;;16.40;99.90;;;;;;5041713;28;20514;-79
2021/09/17 09:14:02;;;;;;;1.00;0.53;;;16.40;99.90;;;;;;5041973;28;20433;-79
2021/09/17 09:16:29;;;;;;;0.50;0.50;;;16.40;99.90;;;;;;5043817;28;20428;-79
2021/09/17 09:18:55;;;;;;;1.73;0.50;;;16.40;99.90;;;;;;5040442;28;20427;-79
2021/09/17 09:21:30;;;;;;;1.53;0.60;;;16.50;99.90;;;;;;5043986;28;20446;-79
2021/09/17 09:24:13;;;;;;;2.40;0.50;;;16.70;99.90;;;;;;5043975;28;20594;-78
2021/09/17 09:26:39;;;;;;;0.50;0.50;;;16.80;99.90;;;;;;5040863;28;20781;-78
2021/09/17 09:29:23;;;;;;;2.50;0.67;;;16.80;99.90;;;;;;5040963;28;20443;-77
2021/09/17 09:31:49;;;;;;;0.60;0.50;;;16.80;99.90;;;;;;5042693;28;20448;-77
2021/09/17 09:34:14;;;;;;;3.70;0.50;;;16.90;99.90;;;;;;5043985;28;20437;-76
2021/09/17 09:36:40;;;;;;;0.53;0.53;;;17.00;99.90;;;;;;5045902;28;20194;-77
2021/09/17 09:39:06;;;;;;;0.53;0.50;;;16.80;99.90;;;;;;5043595;28;20605;-80
2021/09/17 09:41:34;;;;;;;0.50;0.50;;;16.80;99.90;;;;;;5043688;28;20172;-79
2021/09/17 09:44:01;;;;;;;0.93;0.50;;;16.80;99.90;;;;;;5043264;28;20196;-77
2021/09/17 09:46:34;;;;;;;0.70;0.50;;;16.80;99.90;;;;;;5044261;28;20515;-78
2021/09/17 09:48:59;;;;;;;0.50;0.50;;;16.80;99.90;;;;;;5044450;28;20428;-78
2021/09/17 09:51:32;;;;;;;0.50;0.50;;;17.00;99.90;;;;;;5042206;28;20459;-78
2021/09/17 09:54:00;;;;;;;1.17;0.50;;;17.10;99.90;;;;;;5043169;28;20205;-80
2021/09/17 09:56:26;;;;;;;0.40;0.40;;;17.20;99.90;;;;;;5040111;28;21116;-79
2021/09/17 09:58:52;;;;;;;0.50;0.50;;;17.40;99.90;;;;;;5042330;28;21039;-80
2021/09/17 10:01:20;;;;;;;0.50;0.50;;;17.40;99.90;;;;;;5042434;28;20475;-79
2021/09/17 10:03:46;;;;;;;0.80;0.67;;;17.50;99.90;;;;;;5041490;28;20190;-80
2021/09/17 10:06:17;;;;;;;0.50;0.50;;;17.50;99.90;;;;;;5042433;28;20450;-79
2021/09/17 10:08:43;;;;;;;1.13;0.50;;;17.50;99.90;;;;;;5044487;28;20504;-78
2021/09/17 10:11:10;;;;;;;2.40;0.50;;;17.50;99.90;;;;;;5041962;28;20456;-79
2021/09/17 10:13:36;;;;;;;2.40;1.27;;;17.60;99.90;;;;;;5039376;28;20424;-79
2021/09/17 10:16:02;;;;;;;0.50;0.50;;;17.70;99.90;;;;;;5038974;28;20459;-78
2021/09/17 10:18:28;;;;;;;4.70;0.60;;;17.60;99.90;;;;;;5042564;28;20170;-79
2021/09/17 10:20:54;;;;;;;1.13;0.70;;;17.50;99.90;;;;;;5043586;28;20860;-79
2021/09/17 10:23:34;;;;;;;0.90;0.50;;;17.40;99.90;;;;;;5043136;28;20519;-79
2021/09/17 10:26:06;;;;;;;1.23;0.60;;;17.30;99.90;;;;;;5041007;28;20165;-79
2021/09/17 10:28:33;;;;;;;0.50;0.50;;;17.40;99.90;;;;;;5043401;28;20432;-79
2021/09/17 10:31:09;;;;;;;1.43;0.60;;;17.60;99.90;;;;;;5040141;28;20502;-78
2021/09/17 10:33:35;;;;;;;0.70;0.50;;;17.80;99.90;;;;;;5040240;28;20920;-79
2021/09/17 10:36:01;;;;;;;0.53;0.53;;;17.70;99.90;;;;;;5040876;28;20431;-78
2021/09/17 10:38:29;;;;;;;1.57;0.70;;;17.60;99.90;;;;;;5041557;28;20177;-79
2021/09/17 10:41:03;;;;;;;0.50;0.50;;;17.40;99.90;;;;;;5041669;28;20173;-79
2021/09/17 10:43:38;;;;;;;0.50;0.50;;;17.40;99.90;;;;;;5042088;28;20470;-77
2021/09/17 10:46:29;;;;;;;0.70;0.50;;;17.40;99.90;;;;;;5039735;28;20455;-79
2021/09/17 10:48:57;;;;;;;0.90;0.53;;;17.30;99.90;;;;;;5041601;28;20447;-79
2021/09/17 10:51:35;;;;;;;0.70;0.60;;;17.40;99.90;;;;;;5042282;28;20459;-79
2021/09/17 10:54:02;;;;;;;0.63;0.57;;;17.40;99.90;;;;;;5038875;28;20429;-79
2021/09/17 10:56:29;;;;;;;0.50;0.50;;;17.50;99.90;;;;;;5039682;28;20446;-79
2021/09/17 10:59:15;;;;;;;0.60;0.53;;;17.50;99.90;;;;;;5041377;28;20509;-78
2021/09/17 11:02:00;;;;;;;0.50;0.50;;;17.50;99.90;;;;;;5039382;28;20494;-79
2021/09/17 11:04:36;;;;;;;0.63;0.57;;;17.60;99.90;;;;;;5039298;28;20767;-78
2021/09/17 11:07:20;;;;;;;0.70;0.60;;;17.60;99.90;;;;;;5040218;28;20420;-78
2021/09/17 11:09:48;;;;;;;0.57;0.57;;;17.70;99.90;;;;;;5040770;28;20435;-78
2021/09/17 11:12:17;;;;;;;1.97;1.00;;;17.60;99.90;;;;;;5039801;28;20431;-79
2021/09/17 11:14:43;;;;;;;0.60;0.60;;;17.70;99.90;;;;;;5042003;28;20431;-79
2021/09/17 11:17:09;;;;;;;2.33;0.97;;;17.80;99.90;;;;;;5039846;28;20428;-79
2021/09/17 11:19:34;;;;;;;0.60;0.60;;;17.90;99.90;;;;;;5040757;28;20180;-80
2021/09/17 11:22:01;;;;;;;0.70;0.60;;;18.00;99.90;;;;;;5040164;28;20207;-79
2021/09/17 11:24:28;;;;;;;0.70;0.70;;;18.10;99.90;;;;;;5038958;28;20178;-79
2021/09/17 11:26:56;;;;;;;0.70;0.60;;;18.10;99.90;;;;;;5040246;28;20423;-79
2021/09/17 11:29:24;;;;;;;1.43;0.60;;;18.30;99.90;;;;;;5042585;28;20424;-79
2021/09/17 11:31:59;;;;;;;1.37;0.60;;;18.70;99.90;;;;;;5040057;28;20442;-78
2021/09/17 11:34:32;;;;;;;0.60;0.60;;;18.90;99.90;;;;;;5043075;28;20423;-79
2021/09/17 11:37:04;;;;;;;0.57;0.57;;;18.60;99.90;;;;;;5040262;28;20455;-78
2021/09/17 11:39:38;;;;;;;0.50;0.50;;;18.40;99.90;;;;;;5040932;28;20431;-78
2021/09/17 11:42:08;;;;;;;0.77;0.77;;;18.40;99.90;;;;;;5040285;28;20453;-79
2021/09/17 11:44:52;;;;;;;0.50;0.50;;;18.20;99.90;;;;;;5037661;28;20448;-78
2021/09/17 11:47:28;;;;;;;1.63;0.50;;;18.10;99.90;;;;;;5041704;28;20432;-79
2021/09/17 11:49:57;;;;;;;1.33;0.77;;;18.00;99.90;;;;;;5038985;28;20505;-80
2021/09/17 11:52:22;;;;;;;0.60;0.60;;;18.00;99.90;;;;;;5041220;28;20427;-79
2021/09/17 11:55:02;;;;;;;0.50;0.50;;;18.00;99.90;;;;;;5046161;28;20430;-78
2021/09/17 11:57:35;;;;;;;1.10;0.70;;;17.90;99.90;;;;;;5055438;28;20581;-78
2021/09/17 12:00:06;;;;;;;0.60;0.50;;;17.90;99.90;;;;;;5053332;28;20408;-77
2021/09/17 12:02:32;;;;;;;0.50;0.50;;;18.00;99.90;;;;;;5049646;28;20991;-78
2021/09/17 12:05:01;;;;;;;0.70;0.70;;;18.10;99.90;;;;;;5055928;28;20424;-78
2021/09/17 12:07:28;;;;;;;0.50;0.50;;;18.30;99.90;;;;;;5046819;28;20169;-81
2021/09/17 12:09:55;;;;;;;3.27;0.90;;;18.30;99.90;;;;;;5046351;28;20855;-75
2021/09/17 12:12:32;;;;;;;1.20;0.50;;;18.50;99.90;;;;;;5043135;28;20524;-75
2021/09/17 12:14:57;;;;;;;1.37;0.60;;;18.40;99.90;;;;;;5042598;28;20427;-79
2021/09/17 12:17:23;;;;;;;1.47;0.77;;;18.40;99.90;;;;;;5039775;28;20427;-75
2021/09/17 12:20:02;;;;;;;0.60;0.60;;;18.50;99.90;;;;;;5043067;28;20516;-75
2021/09/17 12:22:28;;;;;;;0.50;0.50;;;18.30;99.90;;;;;;5046825;28;20428;-81
2021/09/17 12:25:10;;;;;;;0.90;0.60;;;18.20;99.90;;;;;;5043035;28;20420;-80
2021/09/17 12:27:42;;;;;;;0.60;0.60;;;18.30;99.90;;;;;;5043397;28;20173;-74
2021/09/17 12:30:16;;;;;;;1.07;0.43;;;18.30;99.90;;;;;;5043359;28;20464;-81
2021/09/17 12:32:43;;;;;;;0.80;0.67;;;18.30;99.90;;;;;;5042432;28;20442;-79
2021/09/17 12:35:16;;;;;;;0.50;0.50;;;18.40;99.90;;;;;;5045015;28;20454;-79
2021/09/17 12:37:52;;;;;;;0.70;0.60;;;18.40;99.90;;;;;;5044354;28;20769;-79
2021/09/17 12:40:21;;;;;;;0.97;0.77;;;18.30;99.90;;;;;;5043594;28;20900;-79
2021/09/17 12:42:58;;;;;;;2.40;0.80;;;18.30;99.90;;;;;;5043299;28;20471;-79
2021/09/17 12:45:24;;;;;;;0.50;0.50;;;18.40;99.90;;;;;;5043825;28;20454;-79
2021/09/17 12:47:56;;;;;;;0.77;0.57;;;18.40;99.90;;;;;;5044108;28;20478;-79